Hoegh Transporter — LAKO7 — position and weather

sailwx.info

Track history (hours):
 
Tides and Currents Weather Stations Pressure Air Temp Water Temp Dewpoint Dewpoint Depression Visibility Wind Speed Wind Dir Waves Ship Positions

Hoegh Transporter

Last reported at 2015-Mar-01 07:07 UTC. Time now 2015-Mar-05 04:12 UTC.
Position N 01°10' E 103°47'.

Length 199 m; draft 8.8 m.

Type: Cargo ship. MMSI: 257712000.

Date/timePositionNaut miles runAvg speedWind from/ knotsBaromVisibWave heightAir tempDewpointWater temp
2015-Mar-01 07:07N 01°10' E 103°47'711.8
2015-Mar-01 06:33N 01°13' E 103°53'6 5.4
2015-Mar-01 05:21N 01°17' E 103°59'0 0.0
2015-Mar-01 02:30N 01°17' E 103°59'0 0.0
2015-Feb-28 19:33N 01°17' E 103°59'0 0.0
2015-Feb-28 18:15N 01°17' E 103°59'0 0.1
2015-Feb-28 17:33N 01°17' E 103°58'0 0.1
2015-Feb-28 16:30N 01°17' E 103°59'0 0.0
2015-Feb-28 14:27N 01°17' E 103°58'0 0.0
2015-Feb-28 12:21N 01°17' E 103°59'0 0.0
2015-Feb-28 10:33N 01°17' E 103°59'0 0.1
2015-Feb-28 09:33N 01°17' E 103°59'7 6.6
2015-Feb-28 08:33N 01°13' E 103°53'9 8.5
2015-Feb-28 07:33N 01°16' E 103°45'1 1.0
2015-Feb-28 06:33N 01°17' E 103°45'0 0.0
2015-Feb-28 05:24N 01°17' E 103°45'0 0.0
2015-Feb-28 04:30N 01°17' E 103°45'0 0.0
2015-Feb-28 03:24N 01°17' E 103°45'0 0.0
2015-Feb-28 02:24N 01°17' E 103°45'1 0.9
2015-Feb-28 01:33N 01°17' E 103°45'3 3.1
2015-Feb-28 00:33N 01°14' E 103°47'1 1.3
2015-Feb-27 23:33N 01°13' E 103°48'7 7.2
2015-Feb-27 22:33N 01°14' E 103°55'10 9.1
2015-Feb-27 21:28N 01°16' E 104°04'  
2015-Feb-23 17:30N 23°46' E 118°11'1516.3
2015-Feb-23 16:33N 23°57' E 118°22'2016.0
2015-Feb-23 15:18N 24°10' E 118°39'1516.2
2015-Feb-23 14:23N 24°19' E 118°52'1517.1
2015-Feb-23 13:30N 24°29' E 119°04'5517.6
2015-Feb-23 10:21N 25°04' E 119°51'35917.0
2015-Feb-22 13:13N 30°23' E 123°00'1218.2
2015-Feb-22 12:33N 30°35' E 122°59'3515.7
2015-Feb-22 10:18N 31°04' E 122°37'1114.2
2015-Feb-22 09:33N 31°05' E 122°25'1414.4
2015-Feb-22 08:34N 31°11' E 122°10'1413.9
2015-Feb-22 07:34N 31°16' E 121°54'1110.7
2015-Feb-22 06:33N 31°19' E 121°42'1 1.2
2015-Feb-22 05:31N 31°19' E 121°41'0 0.0
2015-Feb-22 04:31N 31°19' E 121°41'0 0.0
2015-Feb-22 03:31N 31°19' E 121°41'0 0.0
2015-Feb-22 02:31N 31°19' E 121°41'0 0.0
2015-Feb-22 01:31N 31°19' E 121°41'0 0.0
2015-Feb-22 00:31N 31°19' E 121°41'0 0.0
2015-Feb-21 23:31N 31°19' E 121°41'0 0.0
2015-Feb-21 22:31N 31°19' E 121°41'0 0.0
2015-Feb-21 21:31N 31°19' E 121°41'0 0.0
2015-Feb-21 20:31N 31°19' E 121°41'0 0.0
2015-Feb-21 19:31N 31°19' E 121°41'0 0.0
2015-Feb-21 18:31N 31°19' E 121°41'0 0.0
2015-Feb-21 17:31N 31°19' E 121°41'2 1.9
2015-Feb-21 16:33N 31°19' E 121°43'1110.8
2015-Feb-21 15:33N 31°16' E 121°55'10 9.9
2015-Feb-21 14:34N 31°14' E 122°06'9 9.3
2015-Feb-21 13:34N 31°08' E 122°15'1110.5
2015-Feb-21 12:33N 31°07' E 122°27'7 6.7
2015-Feb-21 11:30N 31°11' E 122°34'0 0.0
2015-Feb-21 10:24N 31°11' E 122°34'0 0.0
2015-Feb-21 09:18N 31°11' E 122°34'0 0.1
2015-Feb-21 08:24N 31°11' E 122°35'0 0.0
2015-Feb-21 07:27N 31°11' E 122°35'0 0.1
2015-Feb-21 06:33N 31°11' E 122°35'0 0.1
2015-Feb-21 05:30N 31°11' E 122°34'0 0.1
2015-Feb-21 04:15N 31°11' E 122°34'0 0.0
2015-Feb-21 03:30N 31°11' E 122°34'0 0.0
2015-Feb-21 02:21N 31°11' E 122°34'0 0.1
2015-Feb-21 01:33N 31°11' E 122°35'  
Track history (hours):
 
Tides and Currents Weather Stations Pressure Air Temp Water Temp Dewpoint Dewpoint Depression Visibility Wind Speed Wind Dir Waves Ship Positions

Hoegh Transporter

Last reported at 2015-Mar-01 07:07 UTC. Time now 2015-Mar-05 04:12 UTC.
Position N 01°10' E 103°47'.

Length 199 m; draft 8.8 m.

Type: Cargo ship. MMSI: 257712000.

Date/timePositionNaut miles runAvg speedWind from/ knotsBaromVisibWave heightAir tempDewpointWater temp
2015-Mar-01 07:07N 01°10' E 103°47'711.8
2015-Mar-01 06:33N 01°13' E 103°53'6 5.4
2015-Mar-01 05:21N 01°17' E 103°59'0 0.0
2015-Mar-01 02:30N 01°17' E 103°59'0 0.0
2015-Feb-28 19:33N 01°17' E 103°59'0 0.0
2015-Feb-28 18:15N 01°17' E 103°59'0 0.1
2015-Feb-28 17:33N 01°17' E 103°58'0 0.1
2015-Feb-28 16:30N 01°17' E 103°59'0 0.0
2015-Feb-28 14:27N 01°17' E 103°58'0 0.0
2015-Feb-28 12:21N 01°17' E 103°59'0 0.0
2015-Feb-28 10:33N 01°17' E 103°59'0 0.1
2015-Feb-28 09:33N 01°17' E 103°59'7 6.6
2015-Feb-28 08:33N 01°13' E 103°53'9 8.5
2015-Feb-28 07:33N 01°16' E 103°45'1 1.0
2015-Feb-28 06:33N 01°17' E 103°45'0 0.0
2015-Feb-28 05:24N 01°17' E 103°45'0 0.0
2015-Feb-28 04:30N 01°17' E 103°45'0 0.0
2015-Feb-28 03:24N 01°17' E 103°45'0 0.0
2015-Feb-28 02:24N 01°17' E 103°45'1 0.9
2015-Feb-28 01:33N 01°17' E 103°45'3 3.1
2015-Feb-28 00:33N 01°14' E 103°47'1 1.3
2015-Feb-27 23:33N 01°13' E 103°48'7 7.2
2015-Feb-27 22:33N 01°14' E 103°55'10 9.1
2015-Feb-27 21:28N 01°16' E 104°04'  
2015-Feb-23 17:30N 23°46' E 118°11'1516.3
2015-Feb-23 16:33N 23°57' E 118°22'2016.0
2015-Feb-23 15:18N 24°10' E 118°39'1516.2
2015-Feb-23 14:23N 24°19' E 118°52'1517.1
2015-Feb-23 13:30N 24°29' E 119°04'5517.6
2015-Feb-23 10:21N 25°04' E 119°51'35917.0
2015-Feb-22 13:13N 30°23' E 123°00'1218.2
2015-Feb-22 12:33N 30°35' E 122°59'3515.7
2015-Feb-22 10:18N 31°04' E 122°37'1114.2
2015-Feb-22 09:33N 31°05' E 122°25'1414.4
2015-Feb-22 08:34N 31°11' E 122°10'1413.9
2015-Feb-22 07:34N 31°16' E 121°54'1110.7
2015-Feb-22 06:33N 31°19' E 121°42'1 1.2
2015-Feb-22 05:31N 31°19' E 121°41'0 0.0
2015-Feb-22 04:31N 31°19' E 121°41'0 0.0
2015-Feb-22 03:31N 31°19' E 121°41'0 0.0
2015-Feb-22 02:31N 31°19' E 121°41'0 0.0
2015-Feb-22 01:31N 31°19' E 121°41'0 0.0
2015-Feb-22 00:31N 31°19' E 121°41'0 0.0
2015-Feb-21 23:31N 31°19' E 121°41'0 0.0
2015-Feb-21 22:31N 31°19' E 121°41'0 0.0
2015-Feb-21 21:31N 31°19' E 121°41'0 0.0
2015-Feb-21 20:31N 31°19' E 121°41'0 0.0
2015-Feb-21 19:31N 31°19' E 121°41'0 0.0
2015-Feb-21 18:31N 31°19' E 121°41'0 0.0
2015-Feb-21 17:31N 31°19' E 121°41'2 1.9
2015-Feb-21 16:33N 31°19' E 121°43'1110.8
2015-Feb-21 15:33N 31°16' E 121°55'10 9.9
2015-Feb-21 14:34N 31°14' E 122°06'9 9.3
2015-Feb-21 13:34N 31°08' E 122°15'1110.5
2015-Feb-21 12:33N 31°07' E 122°27'7 6.7
2015-Feb-21 11:30N 31°11' E 122°34'0 0.0
2015-Feb-21 10:24N 31°11' E 122°34'0 0.0
2015-Feb-21 09:18N 31°11' E 122°34'0 0.1
2015-Feb-21 08:24N 31°11' E 122°35'0 0.0
2015-Feb-21 07:27N 31°11' E 122°35'0 0.1
2015-Feb-21 06:33N 31°11' E 122°35'0 0.1
2015-Feb-21 05:30N 31°11' E 122°34'0 0.1
2015-Feb-21 04:15N 31°11' E 122°34'0 0.0
2015-Feb-21 03:30N 31°11' E 122°34'0 0.0
2015-Feb-21 02:21N 31°11' E 122°34'0 0.1
2015-Feb-21 01:33N 31°11' E 122°35'  

Dump ship's entire track history